Time;durP1;ratioP1;P1;durP2;ratioP2;P2;SDS_P1;SDS_P2;PMS_P1;PMS_P2;Temp;Humidity;BMP_temperature;BMP_pressure;BME280_temperature;BME280_humidity;BME280_pressure;Samples;Min_cycle;Max_cycle;Signal;HPM_P1;HPM_P2
2022/09/27 00:00:15;;;;;;;10.98;7.67;;;;;;;13.66;73.25;99921.92;1672536;85;21258;-57
2022/09/27 00:03:21;;;;;;;10.25;7.55;;;;;;;13.68;73.31;99925.33;1657450;86;21232;-55
2022/09/27 00:06:33;;;;;;;11.93;7.83;;;;;;;13.68;73.36;99917.08;1655798;86;21252;-57
2022/09/27 00:09:40;;;;;;;8.45;7.47;;;;;;;13.70;73.39;99913.59;1672872;86;21263;-57
2022/09/27 00:12:47;;;;;;;12.28;7.50;;;;;;;13.69;73.39;99912.73;1672669;86;21188;-55
2022/09/27 00:15:54;;;;;;;15.18;8.25;;;;;;;13.70;73.40;99917.72;1672904;85;21231;-56
2022/09/27 00:19:00;;;;;;;10.93;8.13;;;;;;;13.71;73.44;99915.28;1672718;85;21228;-56
2022/09/27 00:22:06;;;;;;;9.68;7.45;;;;;;;13.70;73.43;99918.55;1656898;86;21204;-56
2022/09/27 00:25:15;;;;;;;9.48;7.67;;;;;;;13.69;73.49;99910.50;1672519;86;21322;-57
2022/09/27 00:28:20;;;;;;;14.75;8.13;;;;;;;13.69;73.54;99907.75;1656980;86;21231;-56
2022/09/27 00:31:29;;;;;;;13.18;7.80;;;;;;;13.69;73.57;99903.63;1672778;85;21287;-56
2022/09/27 00:34:37;;;;;;;10.68;8.48;;;;;;;13.68;73.64;99890.94;1672630;86;21204;-56
2022/09/27 00:37:43;;;;;;;10.70;7.80;;;;;;;13.69;73.69;99893.48;1672647;85;21223;-57
2022/09/27 00:40:49;;;;;;;9.45;7.30;;;;;;;13.69;73.72;99892.11;1672753;85;21196;-55
2022/09/27 00:44:07;;;;;;;9.08;7.47;;;;;;;13.69;73.76;99896.23;1672509;86;21224;-55
2022/09/27 00:47:41;;;;;;;13.68;7.87;;;;;;;13.70;73.80;99887.47;1672622;86;21358;-56
2022/09/27 00:50:49;;;;;;;9.28;7.12;;;;;;;13.70;73.85;99878.66;1672772;86;21208;-56
2022/09/27 00:53:58;;;;;;;10.93;7.17;;;;;;;13.72;73.89;99871.06;1672629;86;21781;-58
2022/09/27 00:57:04;;;;;;;13.78;8.05;;;;;;;13.71;73.91;99863.87;1672617;86;21212;-57
2022/09/27 01:00:16;;;;;;;9.80;7.20;;;;;;;13.71;73.93;99857.52;1672704;86;21344;-57
2022/09/27 01:03:29;;;;;;;13.70;7.60;;;;;;;13.70;74.00;99855.28;1655496;86;21239;-57
2022/09/27 01:06:37;;;;;;;10.85;7.92;;;;;;;13.70;74.04;99859.95;1672793;86;21694;-57
2022/09/27 01:09:42;;;;;;;11.53;7.33;;;;;;;13.71;74.11;99858.89;1641983;87;21252;-57
2022/09/27 01:13:26;;;;;;;9.63;7.40;;;;;;;13.72;74.22;99850.95;1642217;87;21421;-57
2022/09/27 01:16:39;;;;;;;10.82;7.60;;;;;;;13.74;74.26;99850.22;1672748;86;21282;-57
2022/09/27 01:20:25;;;;;;;8.60;7.15;;;;;;;13.75;74.34;99849.18;1655713;86;21208;-58
2022/09/27 01:23:43;;;;;;;11.28;7.70;;;;;;;13.75;74.39;99841.75;1672595;86;21251;-56
2022/09/27 01:27:03;;;;;;;14.07;7.92;;;;;;;13.76;74.44;99829.71;1665819;85;21296;-55
2022/09/27 01:30:23;;;;;;;9.53;7.22;;;;;;;13.77;74.52;99819.02;1672658;86;21228;-55
2022/09/27 01:33:47;;;;;;;10.58;7.45;;;;;;;13.79;74.56;99824.30;1642236;87;21237;-56
2022/09/27 01:37:07;;;;;;;14.05;7.35;;;;;;;13.78;74.62;99813.82;1576239;89;21277;-56
2022/09/27 01:40:17;;;;;;;11.18;7.45;;;;;;;13.79;74.70;99819.66;1617191;88;21273;-56
2022/09/27 01:43:39;;;;;;;15.72;7.47;;;;;;;13.80;74.77;99818.59;1657069;85;21220;-56
2022/09/27 01:46:53;;;;;;;10.90;6.83;;;;;;;13.82;74.86;99826.63;1657550;86;21227;-56
2022/09/27 01:50:15;;;;;;;11.30;7.33;;;;;;;13.83;74.93;99823.67;1673130;85;21232;-55
2022/09/27 01:53:28;;;;;;;10.10;7.33;;;;;;;13.85;74.98;99823.46;1673316;85;21240;-55
2022/09/27 01:56:56;;;;;;;12.45;7.42;;;;;;;13.86;75.02;99812.80;1672956;85;21188;-56
2022/09/27 02:00:09;;;;;;;8.90;7.17;;;;;;;13.88;75.10;99810.66;1657265;86;21251;-56
2022/09/27 02:03:21;;;;;;;13.43;7.35;;;;;;;13.89;75.15;99816.50;1673258;86;21252;-56
2022/09/27 02:06:50;;;;;;;9.00;5.87;;;;;;;13.91;75.25;99799.22;1612050;85;21192;-55
2022/09/27 02:10:05;;;;;;;10.63;7.80;;;;;;;13.93;75.32;99798.48;1673527;85;21216;-55
2022/09/27 02:13:39;;;;;;;9.80;7.47;;;;;;;13.95;75.37;99790.88;1672988;85;21235;-56
2022/09/27 02:17:31;;;;;;;10.13;7.35;;;;;;;13.96;75.43;99792.56;1672925;86;21221;-56
2022/09/27 02:20:46;;;;;;;8.18;6.67;;;;;;;13.97;75.50;99784.09;1673368;85;21283;-57
2022/09/27 02:24:00;;;;;;;9.83;7.37;;;;;;;13.99;75.58;99777.00;1673155;86;21220;-57
2022/09/27 02:27:20;;;;;;;10.98;7.70;;;;;;;13.99;75.63;99766.84;1673268;86;21185;-57
2022/09/27 02:30:29;;;;;;;10.23;6.75;;;;;;;14.02;75.71;99755.41;1673302;85;21854;-58
2022/09/27 02:34:06;;;;;;;9.15;7.00;;;;;;;14.05;75.79;99755.53;1673236;86;21240;-56
2022/09/27 02:37:12;;;;;;;9.78;6.87;;;;;;;14.07;75.86;99743.23;1634498;87;21250;-57
2022/09/27 02:40:18;;;;;;;11.33;6.50;;;;;;;14.09;75.93;99745.25;1673115;86;21216;-56
2022/09/27 02:43:25;;;;;;;10.45;6.92;;;;;;;14.12;75.99;99740.70;1673132;86;21272;-55
2022/09/27 02:46:46;;;;;;;9.25;6.45;;;;;;;14.15;76.04;99744.91;1672994;86;21227;-55
2022/09/27 02:50:04;;;;;;;11.08;7.30;;;;;;;14.15;76.09;99739.41;1642482;87;21230;-56
2022/09/27 02:53:32;;;;;;;7.85;6.95;;;;;;;14.18;76.12;99749.98;1672875;86;21212;-57
2022/09/27 02:57:25;;;;;;;13.80;7.08;;;;;;;14.19;76.17;99736.56;1671258;86;21224;-56
2022/09/27 03:01:11;;;;;;;12.65;8.70;;;;;;;14.20;76.22;99743.74;1673195;85;21248;-57
2022/09/27 03:04:47;;;;;;;9.30;6.70;;;;;;;14.22;76.29;99741.63;1673072;85;21266;-56
2022/09/27 03:07:54;;;;;;;9.25;6.40;;;;;;;14.22;76.34;99735.57;1672836;85;21765;-55
2022/09/27 03:11:00;;;;;;;8.73;6.62;;;;;;;14.22;76.39;99732.81;1657150;86;21247;-57
2022/09/27 03:14:07;;;;;;;7.28;5.33;;;;;;;14.24;76.43;99727.13;1672861;85;21235;-57
2022/09/27 03:17:25;;;;;;;8.98;6.55;;;;;;;14.24;76.48;99725.75;1672676;86;21219;-57
2022/09/27 03:20:48;;;;;;;8.68;6.83;;;;;;;14.24;76.54;99726.61;1672731;86;21216;-56
2022/09/27 03:23:55;;;;;;;9.98;6.75;;;;;;;14.26;76.60;99724.50;1641621;87;21246;-56
2022/09/27 03:27:02;;;;;;;10.20;6.62;;;;;;;14.26;76.66;99721.74;1641485;87;21255;-55
2022/09/27 03:30:07;;;;;;;10.30;6.62;;;;;;;14.28;76.70;99721.52;1624729;87;21298;-54
2022/09/27 03:33:13;;;;;;;11.18;6.50;;;;;;;14.28;76.74;99721.00;1672215;86;21244;-54
2022/09/27 03:36:20;;;;;;;8.08;6.53;;;;;;;14.29;76.75;99716.32;1655148;86;21226;-54
2022/09/27 03:39:26;;;;;;;8.13;6.62;;;;;;;14.30;76.79;99709.77;1672167;86;21243;-54
2022/09/27 03:42:32;;;;;;;8.83;6.53;;;;;;;14.31;76.85;99716.44;1672321;85;21316;-54
2022/09/27 03:45:38;;;;;;;8.68;6.33;;;;;;;14.32;76.87;99715.36;1672259;85;21738;-55
2022/09/27 03:48:44;;;;;;;11.70;7.20;;;;;;;14.33;76.94;99718.45;1672046;85;21224;-54
2022/09/27 03:51:51;;;;;;;10.72;7.00;;;;;;;14.35;77.00;99714.11;1672278;85;21208;-54
2022/09/27 03:54:56;;;;;;;11.28;7.22;;;;;;;14.36;77.03;99711.66;1655027;86;21820;-55
2022/09/27 03:58:02;;;;;;;8.25;6.62;;;;;;;14.39;77.07;99713.97;1672230;85;21292;-54
2022/09/27 04:01:06;;;;;;;10.25;7.25;;;;;;;14.39;77.14;99711.22;1672333;86;21220;-55
2022/09/27 04:04:15;;;;;;;14.75;7.45;;;;;;;14.41;77.21;99720.12;1665053;84;21200;-54
2022/09/27 04:07:22;;;;;;;9.75;7.42;;;;;;;14.43;77.24;99724.89;1703902;84;21203;-55
2022/09/27 04:10:29;;;;;;;11.30;7.25;;;;;;;14.44;77.31;99727.94;1701207;84;21189;-54
2022/09/27 04:13:38;;;;;;;8.50;7.42;;;;;;;14.45;77.37;99722.73;1703154;83;21365;-55
2022/09/27 04:16:43;;;;;;;8.83;7.05;;;;;;;14.46;77.42;99723.08;1700617;84;21272;-54
2022/09/27 04:19:58;;;;;;;10.43;8.00;;;;;;;14.50;77.46;99732.58;1700211;84;21208;-54
2022/09/27 04:23:05;;;;;;;10.25;7.97;;;;;;;14.50;77.52;99744.45;1684601;82;21256;-53
2022/09/27 04:26:13;;;;;;;10.60;7.78;;;;;;;14.50;77.56;99741.70;1708670;82;21241;-56
2022/09/27 04:29:25;;;;;;;13.48;7.90;;;;;;;14.53;77.63;99756.41;1711394;82;21307;-55
2022/09/27 04:32:35;;;;;;;8.90;7.80;;;;;;;14.54;77.66;99760.84;1711508;82;21252;-54
2022/09/27 04:39:17;;;;;;;9.15;7.60;;;;;;;14.56;77.74;99759.25;1676425;85;21220;-54
2022/09/27 04:42:23;;;;;;;13.83;9.20;;;;;;;14.57;77.78;99746.64;1676506;85;21287;-54
2022/09/27 04:45:28;;;;;;;11.75;8.33;;;;;;;14.57;77.81;99753.52;1649718;87;21567;-55
2022/09/27 04:48:34;;;;;;;12.33;8.03;;;;;;;14.59;77.87;99746.41;1710436;82;21252;-54
2022/09/27 04:51:41;;;;;;;11.35;8.90;;;;;;;14.61;77.93;99745.67;1712332;82;21205;-55
2022/09/27 04:54:48;;;;;;;15.08;9.58;;;;;;;14.62;77.94;99752.86;1718866;82;21176;-54
2022/09/27 04:57:56;;;;;;;12.95;8.55;;;;;;;14.63;77.99;99754.58;1703427;82;21237;-52
2022/09/27 05:01:03;;;;;;;10.25;8.95;;;;;;;14.65;78.11;99748.33;1711558;82;21236;-53
2022/09/27 05:04:26;;;;;;;14.07;9.55;;;;;;;14.69;78.21;99750.95;1675141;85;21247;-53
2022/09/27 05:07:33;;;;;;;13.15;9.08;;;;;;;14.72;78.27;99746.38;1660450;86;21222;-50
2022/09/27 05:10:41;;;;;;;12.45;8.80;;;;;;;14.75;78.31;99750.07;1712364;82;21205;-50
2022/09/27 05:13:49;;;;;;;11.80;9.23;;;;;;;14.78;78.35;99754.62;1707460;82;21653;-51
2022/09/27 05:16:58;;;;;;;12.23;8.80;;;;;;;14.82;78.38;99755.89;1707586;82;21185;-50
2022/09/27 05:20:14;;;;;;;16.60;10.20;;;;;;;14.85;78.42;99754.08;1682777;82;21657;-53
2022/09/27 05:23:22;;;;;;;12.82;9.60;;;;;;;14.88;78.45;99757.77;1709845;83;21782;-54
2022/09/27 05:26:30;;;;;;;16.07;9.38;;;;;;;14.91;78.53;99745.45;1709613;83;21776;-55
2022/09/27 05:29:38;;;;;;;11.65;8.33;;;;;;;14.95;78.57;99750.85;1681632;85;21244;-55
2022/09/27 05:32:50;;;;;;;14.38;9.33;;;;;;;14.98;78.61;99750.41;1704059;82;21273;-55
2022/09/27 05:36:10;;;;;;;13.48;9.50;;;;;;;15.00;78.66;99755.15;1681557;85;21240;-55
2022/09/27 05:39:16;;;;;;;13.68;9.03;;;;;;;15.03;78.66;99760.77;1697499;84;21786;-55
2022/09/27 05:42:17;;;;;;;11.70;8.93;;;;;;;15.05;78.68;99771.05;1702604;84;21198;-56
2022/09/27 05:45:10;;;;;;;12.75;10.00;;;;;;;15.05;78.71;99762.23;1701732;84;21873;-55
2022/09/27 05:47:58;;;;;;;12.28;9.60;;;;;;;15.08;78.73;99765.10;1702064;84;21266;-56
2022/09/27 05:51:09;;;;;;;11.08;9.18;;;;;;;15.09;78.74;99759.36;1701715;84;21284;-55
2022/09/27 05:54:15;;;;;;;11.75;9.43;;;;;;;15.11;78.82;99749.50;1702113;84;21379;-55
2022/09/27 05:57:22;;;;;;;12.60;9.40;;;;;;;15.13;78.84;99755.09;1709731;83;21588;-54
2022/09/27 06:00:30;;;;;;;12.58;9.43;;;;;;;15.16;78.83;99750.51;1682118;85;21375;-54
2022/09/27 06:03:50;;;;;;;18.02;9.63;;;;;;;15.17;78.88;99742.57;1671653;85;21252;-55
2022/09/27 06:07:13;;;;;;;13.55;10.63;;;;;;;15.20;78.91;99737.98;1681858;85;21181;-54
2022/09/27 06:10:17;;;;;;;15.18;10.20;;;;;;;15.23;78.92;99738.92;1682951;85;21221;-54
2022/09/27 06:13:25;;;;;;;13.50;10.23;;;;;;;15.25;78.91;99734.56;1723385;83;21221;-54
2022/09/27 06:16:36;;;;;;;12.15;10.23;;;;;;;15.25;78.92;99735.42;1670131;83;21244;-55
2022/09/27 06:19:42;;;;;;;16.90;10.72;;;;;;;15.27;78.97;99736.57;1688299;83;21243;-54
2022/09/27 06:22:48;;;;;;;14.75;9.33;;;;;;;15.28;79.03;99730.83;1691948;83;21225;-55
2022/09/27 06:25:54;;;;;;;12.90;11.10;;;;;;;15.31;79.05;99729.01;1684112;83;21256;-55
2022/09/27 06:29:24;;;;;;;13.22;10.40;;;;;;;15.32;79.05;99731.24;1649998;86;21227;-56
2022/09/27 06:32:37;;;;;;;11.93;10.58;;;;;;;15.32;79.05;99733.44;1709716;83;21245;-56
2022/09/27 06:35:45;;;;;;;13.32;10.30;;;;;;;15.33;79.09;99729.64;1707022;84;21252;-55
2022/09/27 06:38:52;;;;;;;14.38;9.73;;;;;;;15.33;79.13;99737.91;1706641;84;21212;-55
2022/09/27 06:42:01;;;;;;;12.28;9.85;;;;;;;15.34;79.18;99735.45;1704379;82;21217;-54
2022/09/27 06:45:25;;;;;;;12.15;10.35;;;;;;;15.35;79.22;99731.61;1700120;84;21253;-56
2022/09/27 06:48:47;;;;;;;13.40;9.90;;;;;;;15.39;79.21;99730.67;1682414;83;21242;-56
2022/09/27 06:51:55;;;;;;;12.20;10.23;;;;;;;15.43;79.28;99728.63;1706067;84;21212;-56
2022/09/27 06:55:01;;;;;;;10.78;9.45;;;;;;;15.44;79.23;99728.95;1688310;83;21373;-55
2022/09/27 07:01:37;;;;;;;11.18;9.28;;;;;;;15.44;79.18;99738.61;1699978;84;21291;-54
2022/09/27 07:04:55;;;;;;;13.65;10.18;;;;;;;15.42;79.12;99745.40;1726845;82;21662;-54
2022/09/27 07:08:04;;;;;;;15.83;11.57;;;;;;;15.42;79.20;99748.16;1707623;82;21283;-54
2022/09/27 07:11:14;;;;;;;16.45;11.10;;;;;;;15.42;79.26;99743.50;1672252;85;21238;-56
2022/09/27 07:14:25;;;;;;;16.67;12.00;;;;;;;15.44;79.28;99738.61;1665486;83;21233;-55
2022/09/27 07:17:38;;;;;;;14.75;11.35;;;;;;;15.46;79.31;99740.59;1709590;83;21197;-55
2022/09/27 07:20:45;;;;;;;12.80;10.75;;;;;;;15.46;79.31;99735.63;1708090;83;21201;-55
2022/09/27 07:23:59;;;;;;;12.23;10.90;;;;;;;15.46;79.35;99733.69;1707724;83;21378;-56
2022/09/27 07:27:08;;;;;;;14.85;10.93;;;;;;;15.47;79.37;99727.13;1706777;84;21208;-55
2022/09/27 07:30:15;;;;;;;13.65;10.23;;;;;;;15.49;79.38;99710.35;1706845;84;21264;-55
2022/09/27 07:33:25;;;;;;;12.30;9.88;;;;;;;15.52;79.42;99709.38;1709765;83;21220;-55
2022/09/27 07:36:33;;;;;;;12.35;9.80;;;;;;;15.56;79.41;99707.84;1704828;83;21789;-55
2022/09/27 07:39:40;;;;;;;12.18;9.90;;;;;;;15.60;79.38;99701.35;1705864;83;21229;-55
2022/09/27 07:42:49;;;;;;;12.58;10.28;;;;;;;15.63;79.40;99698.99;1708375;82;21261;-55
2022/09/27 07:45:55;;;;;;;10.43;9.45;;;;;;;15.67;79.40;99700.22;1710425;83;21205;-55
2022/09/27 07:49:03;;;;;;;13.15;10.28;;;;;;;15.70;79.44;99699.77;1689278;82;21220;-55
2022/09/27 07:52:27;;;;;;;11.60;10.40;;;;;;;15.74;79.46;99702.92;1675274;84;21649;-55
2022/09/27 07:55:58;;;;;;;11.12;9.93;;;;;;;15.78;79.46;99691.73;1640145;86;21202;-54
2022/09/27 07:59:04;;;;;;;12.15;10.48;;;;;;;15.87;79.58;99691.77;1601656;89;21236;-55
2022/09/27 08:02:10;;;;;;;14.47;10.68;;;;;;;15.96;79.62;99682.98;1684404;83;21206;-56
2022/09/27 08:05:19;;;;;;;11.70;9.23;;;;;;;16.09;79.67;99681.44;1703613;83;21220;-55
2022/09/27 08:08:25;;;;;;;10.60;9.35;;;;;;;16.24;79.63;99686.06;1706380;83;21618;-55
2022/09/27 08:11:36;;;;;;;10.43;9.38;;;;;;;16.35;79.51;99683.06;1708262;83;21217;-55
2022/09/27 08:14:42;;;;;;;13.35;9.05;;;;;;;16.43;79.43;99683.63;1710433;83;21379;-54
2022/09/27 08:17:50;;;;;;;10.25;9.00;;;;;;;16.49;79.31;99682.42;1710681;83;21366;-56
2022/09/27 08:21:14;;;;;;;10.72;9.58;;;;;;;16.52;79.19;99677.82;1710236;83;21607;-54
2022/09/27 08:24:25;;;;;;;10.85;9.40;;;;;;;16.49;79.06;99665.85;1709490;83;21229;-56
2022/09/27 08:27:42;;;;;;;13.30;10.20;;;;;;;16.49;79.03;99661.70;1662530;83;21719;-54
2022/09/27 08:30:51;;;;;;;12.10;10.63;;;;;;;16.48;78.99;99660.00;1710154;83;21757;-55
2022/09/27 08:33:58;;;;;;;11.75;10.30;;;;;;;16.43;78.95;99655.99;1709804;83;21228;-55
2022/09/27 08:37:03;;;;;;;13.60;10.15;;;;;;;16.40;78.90;99652.31;1700321;83;21189;-56
2022/09/27 08:40:14;;;;;;;13.75;11.57;;;;;;;16.34;78.85;99654.62;1709567;83;21280;-55
2022/09/27 08:43:36;;;;;;;12.73;11.48;;;;;;;16.30;78.92;99647.86;1709757;83;21228;-55
2022/09/27 08:47:14;;;;;;;13.60;11.75;;;;;;;16.28;78.98;99658.84;1710004;83;21280;-55
2022/09/27 08:50:34;;;;;;;13.08;11.80;;;;;;;16.23;78.99;99644.88;1710162;83;21252;-55
2022/09/27 08:53:55;;;;;;;14.15;12.80;;;;;;;16.18;79.00;99651.09;1703504;83;21314;-56
2022/09/27 08:57:03;;;;;;;14.98;12.55;;;;;;;16.13;79.07;99642.64;1664317;85;21780;-54
2022/09/27 09:00:16;;;;;;;14.87;13.28;;;;;;;16.12;79.16;99638.20;1693328;83;21243;-49
2022/09/27 09:03:26;;;;;;;14.15;12.75;;;;;;;16.09;79.20;99633.67;1628144;87;21290;-53
2022/09/27 09:06:49;;;;;;;14.18;12.13;;;;;;;16.07;79.23;99635.81;1680974;85;21730;-50
2022/09/27 09:12:45;;;;;;;12.93;11.68;;;;;;;16.07;79.26;99653.76;1671498;85;21228;-50
2022/09/27 09:13:43;;;;;;;13.43;12.05;;;;;;;16.05;79.29;99659.52;1681630;85;21264;-49
2022/09/27 09:17:11;;;;;;;14.68;13.08;;;;;;;16.03;79.26;99654.75;1690431;83;21750;-50
2022/09/27 09:20:58;;;;;;;15.55;13.68;;;;;;;16.01;79.32;99658.30;1698270;83;21201;-50
2022/09/27 09:24:10;;;;;;;15.72;13.88;;;;;;;15.99;79.35;99657.67;1681885;82;21800;-51
2022/09/27 09:27:43;;;;;;;15.32;13.72;;;;;;;16.00;79.43;99648.83;1711239;83;21264;-52
2022/09/27 09:31:00;;;;;;;14.68;12.82;;;;;;;16.00;79.52;99637.27;1682555;85;21213;-52
2022/09/27 09:34:15;;;;;;;14.55;13.15;;;;;;;15.99;79.47;99636.11;1681729;85;21244;-52
2022/09/27 09:37:30;;;;;;;14.98;13.50;;;;;;;15.93;79.49;99643.41;1681669;85;21249;-52
2022/09/27 09:40:49;;;;;;;18.45;14.03;;;;;;;15.89;79.53;99637.16;1681490;84;21185;-52
2022/09/27 09:44:13;;;;;;;19.32;15.13;;;;;;;15.87;79.62;99642.91;1678038;85;21213;-53
2022/09/27 09:47:34;;;;;;;17.20;15.57;;;;;;;15.85;79.76;99653.36;1689659;84;21231;-53
2022/09/27 09:50:50;;;;;;;17.10;15.08;;;;;;;15.85;79.87;99653.36;1687391;83;21225;-52
2022/09/27 09:54:07;;;;;;;18.82;15.95;;;;;;;15.84;79.91;99644.75;1711516;83;21273;-52
2022/09/27 09:57:24;;;;;;;17.52;15.60;;;;;;;15.84;79.99;99640.61;1711617;83;21737;-53
2022/09/27 10:00:25;;;;;;;17.95;16.15;;;;;;;15.87;80.16;99636.57;1699699;83;21765;-52
2022/09/27 10:03:32;;;;;;;17.55;15.83;;;;;;;15.93;80.30;99632.89;1671734;84;21295;-53
2022/09/27 10:07:08;;;;;;;17.60;15.70;;;;;;;16.02;80.42;99632.36;1680726;85;21221;-53
2022/09/27 10:10:20;;;;;;;17.75;15.60;;;;;;;16.09;80.46;99625.39;1663665;81;21276;-53
2022/09/27 10:13:43;;;;;;;17.00;15.25;;;;;;;16.16;80.52;99622.85;1611268;84;21243;-53
2022/09/27 10:16:53;;;;;;;16.32;14.63;;;;;;;16.22;80.49;99621.92;1661005;84;21762;-53
2022/09/27 10:20:00;;;;;;;16.90;15.20;;;;;;;16.26;80.50;99612.12;1633281;85;21247;-53
2022/09/27 10:23:15;;;;;;;16.42;14.70;;;;;;;16.26;80.49;99616.27;1628786;84;21244;-53
2022/09/27 10:26:26;;;;;;;18.62;16.07;;;;;;;16.25;80.50;99607.66;1673372;81;21269;-54
2022/09/27 10:29:42;;;;;;;17.65;15.85;;;;;;;16.27;80.54;99609.66;1666600;85;21232;-53
2022/09/27 10:32:48;;;;;;;18.57;15.38;;;;;;;16.27;80.59;99606.89;1649506;84;21297;-52
2022/09/27 10:36:07;;;;;;;17.57;14.58;;;;;;;16.30;80.58;99594.52;1667007;84;21809;-51
2022/09/27 10:39:17;;;;;;;15.03;13.38;;;;;;;16.31;80.64;99583.27;1681246;81;21291;-51
2022/09/27 10:42:44;;;;;;;16.55;13.93;;;;;;;16.32;80.66;99586.33;1676717;83;21280;-52
2022/09/27 10:45:53;;;;;;;15.50;13.83;;;;;;;16.32;80.74;99573.90;1680666;83;21779;-52
2022/09/27 10:49:18;;;;;;;16.12;14.43;;;;;;;16.34;80.78;99571.75;1679024;84;21215;-51
2022/09/27 10:52:29;;;;;;;16.52;13.03;;;;;;;16.35;80.81;99562.38;1694045;82;21227;-53
2022/09/27 10:55:40;;;;;;;15.03;13.43;;;;;;;16.33;80.82;99564.52;1695787;83;21304;-53
2022/09/27 10:58:51;;;;;;;15.15;13.58;;;;;;;16.32;80.77;99561.47;1686988;83;21330;-53
2022/09/27 11:01:58;;;;;;;15.40;13.80;;;;;;;16.27;80.75;99564.08;1675923;84;21303;-54
2022/09/27 11:05:34;;;;;;;17.75;12.47;;;;;;;16.26;80.84;99554.13;1695095;83;21294;-54
2022/09/27 11:08:40;;;;;;;12.40;11.18;;;;;;;16.23;80.89;99548.21;1664785;85;21311;-54
2022/09/27 11:11:48;;;;;;;11.20;10.10;;;;;;;16.18;80.93;99542.02;1648310;85;21643;-54
2022/09/27 11:15:05;;;;;;;11.45;9.70;;;;;;;16.11;80.85;99539.86;1672812;84;21233;-54
2022/09/27 11:18:17;;;;;;;12.13;10.93;;;;;;;16.06;80.86;99534.74;1664599;84;21248;-53
2022/09/27 11:21:41;;;;;;;11.60;10.40;;;;;;;16.03;80.94;99533.27;1658515;83;22129;-53
2022/09/27 11:25:09;;;;;;;12.70;11.38;;;;;;;16.01;80.98;99534.06;1670724;83;21307;-54
2022/09/27 11:28:23;;;;;;;11.12;9.98;;;;;;;16.01;81.03;99528.54;1661354;85;21292;-54
2022/09/27 11:32:01;;;;;;;11.12;10.03;;;;;;;15.98;81.00;99515.17;1665288;83;21251;-53
2022/09/27 11:35:37;;;;;;;12.03;10.80;;;;;;;15.95;80.94;99511.49;1662392;84;21786;-53
2022/09/27 11:39:09;;;;;;;13.18;10.30;;;;;;;15.91;80.97;99508.05;1653898;85;21187;-54
2022/09/27 11:42:23;;;;;;;12.43;10.98;;;;;;;15.91;81.06;99489.59;1648447;85;21228;-53
2022/09/27 11:45:40;;;;;;;11.53;10.38;;;;;;;15.98;81.25;99483.42;1642393;84;21249;-54
2022/09/27 11:49:15;;;;;;;11.90;10.70;;;;;;;16.09;81.35;99483.20;1634025;86;21810;-53
2022/09/27 11:52:35;;;;;;;10.70;9.60;;;;;;;16.16;81.39;99473.73;1649162;83;21247;-54
2022/09/27 11:55:48;;;;;;;13.35;11.35;;;;;;;16.22;81.29;99478.88;1672208;83;21307;-54
2022/09/27 11:59:30;;;;;;;12.03;10.65;;;;;;;16.24;81.31;99471.18;1680321;83;21222;-53
2022/09/27 12:02:59;;;;;;;13.35;11.65;;;;;;;16.31;81.37;99475.55;1689334;82;21227;-54
2022/09/27 12:06:15;;;;;;;14.53;11.25;;;;;;;16.40;81.41;99467.23;1696647;84;21223;-55
2022/09/27 12:09:34;;;;;;;15.08;12.60;;;;;;;16.45;81.35;99465.17;1701630;82;21615;-55
2022/09/27 12:12:44;;;;;;;21.85;13.75;;;;;;;16.44;81.27;99459.31;1661327;82;21236;-54
2022/09/27 12:15:51;;;;;;;18.17;14.33;;;;;;;16.41;81.17;99445.98;1657905;83;21300;-54
2022/09/27 12:19:01;;;;;;;16.35;13.85;;;;;;;16.36;81.13;99436.17;1666438;85;21241;-53
2022/09/27 12:22:14;;;;;;;14.90;13.30;;;;;;;16.31;81.14;99427.22;1676286;84;21301;-54
2022/09/27 12:25:24;;;;;;;15.03;13.08;;;;;;;16.31;81.21;99429.13;1666159;84;21239;-54
2022/09/27 12:28:58;;;;;;;13.50;12.20;;;;;;;16.27;81.25;99420.46;1656131;83;21279;-52
2022/09/27 12:32:39;;;;;;;14.35;11.90;;;;;;;16.24;81.27;99416.80;1669361;82;21255;-53
2022/09/27 12:35:56;;;;;;;12.87;11.63;;;;;;;16.22;81.34;99417.56;1682675;81;21215;-52
2022/09/27 12:39:13;;;;;;;13.15;11.70;;;;;;;16.20;81.42;99416.98;1664537;85;22291;-53
2022/09/27 12:42:27;;;;;;;12.23;10.85;;;;;;;16.17;81.49;99409.14;1624283;85;21216;-53
2022/09/27 12:46:11;;;;;;;13.32;11.57;;;;;;;16.15;81.51;99412.70;1646898;84;21283;-54
2022/09/27 12:49:24;;;;;;;12.58;11.28;;;;;;;16.10;81.46;99395.98;1638285;85;21280;-55
2022/09/27 12:52:32;;;;;;;12.78;11.57;;;;;;;16.05;81.54;99393.09;1683427;85;21275;-55
2022/09/27 12:55:55;;;;;;;12.50;11.22;;;;;;;16.05;81.72;99387.56;1684630;83;21360;-55
2022/09/27 12:59:35;;;;;;;13.93;12.43;;;;;;;16.06;81.79;99390.61;1630885;84;21209;-55
2022/09/27 13:03:02;;;;;;;16.05;12.65;;;;;;;16.05;81.79;99388.95;1669976;81;21579;-53
2022/09/27 13:06:17;;;;;;;13.75;12.30;;;;;;;16.02;81.86;99379.75;1653789;84;21335;-55
2022/09/27 13:09:38;;;;;;;14.38;12.98;;;;;;;16.01;81.85;99368.42;1648646;83;21881;-53
2022/09/27 13:12:43;;;;;;;14.68;13.18;;;;;;;15.98;81.91;99363.34;1646352;84;21242;-54
2022/09/27 13:15:52;;;;;;;17.48;13.98;;;;;;;15.98;81.98;99364.72;1651904;83;21294;-54
2022/09/27 13:19:06;;;;;;;17.30;13.78;;;;;;;15.97;82.04;99352.01;1659498;85;21243;-54
2022/09/27 13:22:15;;;;;;;16.70;14.85;;;;;;;15.94;81.99;99349.72;1658812;82;21232;-54
2022/09/27 13:26:02;;;;;;;19.15;15.03;;;;;;;15.91;82.10;99351.58;1628077;85;21837;-54
2022/09/27 13:29:12;;;;;;;17.48;15.43;;;;;;;15.89;82.17;99347.34;1652037;83;21256;-53
2022/09/27 13:32:25;;;;;;;18.57;16.40;;;;;;;15.85;82.22;99335.11;1676435;84;21241;-53
2022/09/27 13:35:33;;;;;;;19.90;17.80;;;;;;;15.83;82.31;99333.12;1640271;86;21263;-54
2022/09/27 13:38:44;;;;;;;22.35;17.12;;;;;;;15.83;82.48;99333.97;1637984;85;21299;-54
2022/09/27 13:42:03;;;;;;;25.20;18.45;;;;;;;15.82;82.53;99336.44;1666085;83;21271;-54
2022/09/27 13:45:33;;;;;;;;;;;;;;;15.82;82.60;99330.06;1680022;82;21221;-54
2022/09/27 13:49:05;;;;;;;22.42;18.52;;;;;;;15.82;82.62;99334.20;1676168;83;20221;-55
2022/09/27 13:52:35;;;;;;;24.02;18.82;;;;;;;15.81;82.74;99335.30;1638920;85;21260;-54
2022/09/27 13:55:57;;;;;;;23.90;18.20;;;;;;;15.82;82.86;99331.45;1690352;83;21234;-54
2022/09/27 13:59:07;;;;;;;26.37;19.20;;;;;;;15.84;82.91;99331.50;1672945;83;21283;-54
2022/09/27 14:02:38;;;;;;;23.10;18.40;;;;;;;15.86;82.98;99339.55;1653145;84;21228;-53
2022/09/27 14:05:48;;;;;;;22.05;17.55;;;;;;;15.87;83.10;99328.83;1653423;84;21240;-55
2022/09/27 14:09:04;;;;;;;26.07;20.17;;;;;;;15.89;83.23;99328.88;1647626;84;21236;-53
2022/09/27 14:12:17;;;;;;;25.85;18.95;;;;;;;15.92;83.30;99325.64;1632579;84;21258;-55
2022/09/27 14:15:31;;;;;;;19.80;16.60;;;;;;;15.92;83.38;99319.30;1657320;84;21702;-54
2022/09/27 14:18:38;;;;;;;20.32;17.30;;;;;;;15.93;83.45;99314.92;1691227;80;21224;-54
2022/09/27 14:22:22;;;;;;;20.20;16.00;;;;;;;15.93;83.49;99309.41;1673413;83;21225;-54
2022/09/27 14:25:31;;;;;;;20.00;16.87;;;;;;;15.94;83.57;99304.18;1675170;82;21781;-54
2022/09/27 14:28:47;;;;;;;19.98;15.83;;;;;;;15.94;83.70;99302.80;1672059;84;21247;-54
2022/09/27 14:31:56;;;;;;;23.20;16.50;;;;;;;15.95;83.78;99296.19;1663067;82;21254;-54
2022/09/27 14:38:44;;;;;;;18.80;14.05;;;;;;;15.97;84.00;99283.00;1666119;84;21832;-55
2022/09/27 14:41:53;;;;;;;18.32;14.70;;;;;;;15.99;84.11;99280.84;1673243;83;21959;-55
2022/09/27 14:45:06;;;;;;;18.02;14.75;;;;;;;15.99;84.21;99273.95;1677694;85;21611;-56
2022/09/27 14:48:34;;;;;;;17.85;13.83;;;;;;;16.01;84.30;99269.04;1654219;83;21270;-55
2022/09/27 14:51:39;;;;;;;17.98;14.83;;;;;;;16.02;84.39;99265.72;1640295;86;21341;-56
2022/09/27 14:54:46;;;;;;;25.15;15.08;;;;;;;16.04;84.48;99265.80;1647650;87;21260;-56
2022/09/27 14:58:08;;;;;;;17.62;14.80;;;;;;;16.05;84.54;99254.20;1627117;85;21884;-56
2022/09/27 15:01:25;;;;;;;18.55;13.83;;;;;;;16.06;84.60;99254.52;1665182;83;21812;-56
2022/09/27 15:04:32;;;;;;;20.68;15.00;;;;;;;16.06;84.65;99254.52;1632129;85;21290;-56
2022/09/27 15:07:40;;;;;;;18.55;15.85;;;;;;;16.07;84.71;99257.04;1650743;83;21815;-55
2022/09/27 15:10:47;;;;;;;19.35;14.53;;;;;;;16.07;84.80;99247.91;1626364;86;22125;-56